sensor_id;sensor_type;location;lat;lon;timestamp;P1;durP1;ratioP1;P2;durP2;ratioP2
47225;SDS011;32965;64.142;-21.912;2022-12-05T00:01:29;5.80;;;2.07;;
47225;SDS011;32965;64.142;-21.912;2022-12-05T00:03:56;6.57;;;2.13;;
47225;SDS011;32965;64.142;-21.912;2022-12-05T00:06:23;4.80;;;1.47;;
47225;SDS011;32965;64.142;-21.912;2022-12-05T00:08:51;5.63;;;2.33;;
47225;SDS011;32965;64.142;-21.912;2022-12-05T00:11:21;6.27;;;2.20;;
47225;SDS011;32965;64.142;-21.912;2022-12-05T00:13:49;5.20;;;1.90;;
47225;SDS011;32965;64.142;-21.912;2022-12-05T00:16:17;4.50;;;1.60;;
47225;SDS011;32965;64.142;-21.912;2022-12-05T00:18:44;3.88;;;1.67;;
47225;SDS011;32965;64.142;-21.912;2022-12-05T00:21:12;6.53;;;1.90;;
47225;SDS011;32965;64.142;-21.912;2022-12-05T00:23:39;5.82;;;2.35;;
47225;SDS011;32965;64.142;-21.912;2022-12-05T00:26:06;7.80;;;2.40;;
47225;SDS011;32965;64.142;-21.912;2022-12-05T00:28:32;5.70;;;1.90;;
47225;SDS011;32965;64.142;-21.912;2022-12-05T00:31:11;6.37;;;2.30;;
47225;SDS011;32965;64.142;-21.912;2022-12-05T00:33:40;5.93;;;1.90;;
47225;SDS011;32965;64.142;-21.912;2022-12-05T00:36:07;3.37;;;1.63;;
47225;SDS011;32965;64.142;-21.912;2022-12-05T00:38:35;6.15;;;2.17;;
47225;SDS011;32965;64.142;-21.912;2022-12-05T00:41:05;3.57;;;1.90;;
47225;SDS011;32965;64.142;-21.912;2022-12-05T00:43:32;2.80;;;1.30;;
47225;SDS011;32965;64.142;-21.912;2022-12-05T00:46:02;4.10;;;1.80;;
47225;SDS011;32965;64.142;-21.912;2022-12-05T00:48:32;2.07;;;1.40;;
47225;SDS011;32965;64.142;-21.912;2022-12-05T00:51:03;3.80;;;1.70;;
47225;SDS011;32965;64.142;-21.912;2022-12-05T00:53:33;3.80;;;2.00;;
47225;SDS011;32965;64.142;-21.912;2022-12-05T00:56:01;4.03;;;2.20;;
47225;SDS011;32965;64.142;-21.912;2022-12-05T00:58:28;5.60;;;2.55;;
47225;SDS011;32965;64.142;-21.912;2022-12-05T01:00:54;7.93;;;3.67;;
47225;SDS011;32965;64.142;-21.912;2022-12-05T01:03:20;9.03;;;4.30;;
47225;SDS011;32965;64.142;-21.912;2022-12-05T01:05:45;10.17;;;3.90;;
47225;SDS011;32965;64.142;-21.912;2022-12-05T01:08:11;8.50;;;3.73;;
47225;SDS011;32965;64.142;-21.912;2022-12-05T01:10:37;8.57;;;4.53;;
47225;SDS011;32965;64.142;-21.912;2022-12-05T01:13:03;8.13;;;4.37;;
47225;SDS011;32965;64.142;-21.912;2022-12-05T01:15:28;9.43;;;4.77;;
47225;SDS011;32965;64.142;-21.912;2022-12-05T01:17:54;14.60;;;5.50;;
47225;SDS011;32965;64.142;-21.912;2022-12-05T01:20:20;10.90;;;4.80;;
47225;SDS011;32965;64.142;-21.912;2022-12-05T01:22:45;8.37;;;4.57;;
47225;SDS011;32965;64.142;-21.912;2022-12-05T01:25:11;11.60;;;6.13;;
47225;SDS011;32965;64.142;-21.912;2022-12-05T01:27:37;13.17;;;6.17;;
47225;SDS011;32965;64.142;-21.912;2022-12-05T01:30:03;11.80;;;5.80;;
47225;SDS011;32965;64.142;-21.912;2022-12-05T01:32:29;13.60;;;6.50;;
47225;SDS011;32965;64.142;-21.912;2022-12-05T01:34:55;12.90;;;5.67;;
47225;SDS011;32965;64.142;-21.912;2022-12-05T01:37:21;13.70;;;5.93;;
47225;SDS011;32965;64.142;-21.912;2022-12-05T01:39:47;13.17;;;6.50;;
47225;SDS011;32965;64.142;-21.912;2022-12-05T01:42:13;12.27;;;6.00;;
47225;SDS011;32965;64.142;-21.912;2022-12-05T01:47:07;12.32;;;5.75;;
47225;SDS011;32965;64.142;-21.912;2022-12-05T01:49:34;10.90;;;5.40;;
47225;SDS011;32965;64.142;-21.912;2022-12-05T01:52:05;12.67;;;5.33;;
47225;SDS011;32965;64.142;-21.912;2022-12-05T01:54:46;12.63;;;5.57;;
47225;SDS011;32965;64.142;-21.912;2022-12-05T01:59:43;9.67;;;4.87;;
47225;SDS011;32965;64.142;-21.912;2022-12-05T02:02:12;10.97;;;4.73;;
47225;SDS011;32965;64.142;-21.912;2022-12-05T02:04:42;10.20;;;5.07;;
47225;SDS011;32965;64.142;-21.912;2022-12-05T02:07:24;8.70;;;4.33;;
47225;SDS011;32965;64.142;-21.912;2022-12-05T02:09:50;10.67;;;4.53;;
47225;SDS011;32965;64.142;-21.912;2022-12-05T02:12:17;9.87;;;5.23;;
47225;SDS011;32965;64.142;-21.912;2022-12-05T02:31:33;11.93;;;5.77;;
47225;SDS011;32965;64.142;-21.912;2022-12-05T02:34:26;12.85;;;5.47;;
47225;SDS011;32965;64.142;-21.912;2022-12-05T02:37:13;11.15;;;5.57;;
47225;SDS011;32965;64.142;-21.912;2022-12-05T02:40:01;12.93;;;6.60;;
47225;SDS011;32965;64.142;-21.912;2022-12-05T02:45:16;14.43;;;6.07;;
47225;SDS011;32965;64.142;-21.912;2022-12-05T02:47:45;12.80;;;6.33;;
47225;SDS011;32965;64.142;-21.912;2022-12-05T02:50:16;11.57;;;5.77;;
47225;SDS011;32965;64.142;-21.912;2022-12-05T02:52:47;12.40;;;5.97;;
47225;SDS011;32965;64.142;-21.912;2022-12-05T02:55:14;12.10;;;6.00;;
47225;SDS011;32965;64.142;-21.912;2022-12-05T02:57:43;13.23;;;6.20;;
47225;SDS011;32965;64.142;-21.912;2022-12-05T03:00:13;12.67;;;6.13;;
47225;SDS011;32965;64.142;-21.912;2022-12-05T03:02:39;15.23;;;6.63;;
47225;SDS011;32965;64.142;-21.912;2022-12-05T03:05:18;14.70;;;6.73;;
47225;SDS011;32965;64.142;-21.912;2022-12-05T03:08:05;14.07;;;6.43;;
47225;SDS011;32965;64.142;-21.912;2022-12-05T03:10:34;14.27;;;6.77;;
47225;SDS011;32965;64.142;-21.912;2022-12-05T03:13:04;15.87;;;7.13;;
47225;SDS011;32965;64.142;-21.912;2022-12-05T03:15:39;15.93;;;7.07;;
47225;SDS011;32965;64.142;-21.912;2022-12-05T03:18:15;16.40;;;7.60;;
47225;SDS011;32965;64.142;-21.912;2022-12-05T03:20:58;15.47;;;7.70;;
47225;SDS011;32965;64.142;-21.912;2022-12-05T03:23:45;13.77;;;6.00;;
47225;SDS011;32965;64.142;-21.912;2022-12-05T03:34:07;10.97;;;4.73;;
47225;SDS011;32965;64.142;-21.912;2022-12-05T03:36:43;8.97;;;3.80;;
47225;SDS011;32965;64.142;-21.912;2022-12-05T03:39:23;6.63;;;3.50;;
47225;SDS011;32965;64.142;-21.912;2022-12-05T03:44:43;7.30;;;3.23;;
47225;SDS011;32965;64.142;-21.912;2022-12-05T03:47:27;6.50;;;2.70;;
47225;SDS011;32965;64.142;-21.912;2022-12-05T03:50:25;8.27;;;3.17;;
47225;SDS011;32965;64.142;-21.912;2022-12-05T03:55:28;7.20;;;2.87;;
47225;SDS011;32965;64.142;-21.912;2022-12-05T03:58:01;8.50;;;3.43;;
47225;SDS011;32965;64.142;-21.912;2022-12-05T04:00:33;8.10;;;3.50;;
47225;SDS011;32965;64.142;-21.912;2022-12-05T04:03:08;9.63;;;3.40;;
47225;SDS011;32965;64.142;-21.912;2022-12-05T04:05:43;9.77;;;3.03;;
47225;SDS011;32965;64.142;-21.912;2022-12-05T04:08:24;8.47;;;3.60;;
47225;SDS011;32965;64.142;-21.912;2022-12-05T04:10:55;8.43;;;3.10;;
47225;SDS011;32965;64.142;-21.912;2022-12-05T04:16:07;7.35;;;2.47;;
47225;SDS011;32965;64.142;-21.912;2022-12-05T04:22:22;7.20;;;3.20;;
47225;SDS011;32965;64.142;-21.912;2022-12-05T04:24:49;8.10;;;2.27;;
47225;SDS011;32965;64.142;-21.912;2022-12-05T04:30:22;7.17;;;2.70;;
47225;SDS011;32965;64.142;-21.912;2022-12-05T04:35:35;4.37;;;1.80;;
47225;SDS011;32965;64.142;-21.912;2022-12-05T04:38:07;5.30;;;2.73;;
47225;SDS011;32965;64.142;-21.912;2022-12-05T04:40:38;5.40;;;1.77;;
47225;SDS011;32965;64.142;-21.912;2022-12-05T04:43:12;5.77;;;2.13;;
47225;SDS011;32965;64.142;-21.912;2022-12-05T04:45:40;5.20;;;1.80;;
47225;SDS011;32965;64.142;-21.912;2022-12-05T04:48:09;5.13;;;2.40;;
47225;SDS011;32965;64.142;-21.912;2022-12-05T04:50:38;4.43;;;1.93;;
47225;SDS011;32965;64.142;-21.912;2022-12-05T04:53:06;5.07;;;2.10;;
47225;SDS011;32965;64.142;-21.912;2022-12-05T04:55:34;4.63;;;1.90;;
47225;SDS011;32965;64.142;-21.912;2022-12-05T05:05:50;3.67;;;1.50;;
47225;SDS011;32965;64.142;-21.912;2022-12-05T05:08:24;6.40;;;1.83;;
47225;SDS011;32965;64.142;-21.912;2022-12-05T05:13:38;4.07;;;1.77;;
47225;SDS011;32965;64.142;-21.912;2022-12-05T05:16:04;3.90;;;1.87;;
47225;SDS011;32965;64.142;-21.912;2022-12-05T05:18:30;4.37;;;1.70;;
47225;SDS011;32965;64.142;-21.912;2022-12-05T05:20:56;2.23;;;1.13;;
47225;SDS011;32965;64.142;-21.912;2022-12-05T05:23:22;2.27;;;1.07;;
47225;SDS011;32965;64.142;-21.912;2022-12-05T05:25:51;4.57;;;1.50;;
47225;SDS011;32965;64.142;-21.912;2022-12-05T05:28:18;4.80;;;2.23;;
47225;SDS011;32965;64.142;-21.912;2022-12-05T05:30:44;4.57;;;1.60;;
47225;SDS011;32965;64.142;-21.912;2022-12-05T05:33:10;5.60;;;1.80;;
47225;SDS011;32965;64.142;-21.912;2022-12-05T05:35:36;6.10;;;2.00;;
47225;SDS011;32965;64.142;-21.912;2022-12-05T05:38:02;3.20;;;1.70;;
47225;SDS011;32965;64.142;-21.912;2022-12-05T05:40:27;4.83;;;1.87;;
47225;SDS011;32965;64.142;-21.912;2022-12-05T05:42:53;2.50;;;1.27;;
47225;SDS011;32965;64.142;-21.912;2022-12-05T05:45:19;5.13;;;1.70;;
47225;SDS011;32965;64.142;-21.912;2022-12-05T05:47:46;3.10;;;1.53;;
47225;SDS011;32965;64.142;-21.912;2022-12-05T05:50:14;4.28;;;1.50;;
47225;SDS011;32965;64.142;-21.912;2022-12-05T05:52:40;3.77;;;1.97;;
47225;SDS011;32965;64.142;-21.912;2022-12-05T05:55:06;4.23;;;1.90;;
47225;SDS011;32965;64.142;-21.912;2022-12-05T05:57:33;5.20;;;1.70;;
47225;SDS011;32965;64.142;-21.912;2022-12-05T05:59:59;4.50;;;1.53;;
47225;SDS011;32965;64.142;-21.912;2022-12-05T06:02:29;4.03;;;1.37;;
47225;SDS011;32965;64.142;-21.912;2022-12-05T06:04:56;4.30;;;1.83;;
47225;SDS011;32965;64.142;-21.912;2022-12-05T06:07:22;3.20;;;1.77;;
47225;SDS011;32965;64.142;-21.912;2022-12-05T06:09:47;6.20;;;2.30;;
47225;SDS011;32965;64.142;-21.912;2022-12-05T06:12:13;8.13;;;3.10;;
47225;SDS011;32965;64.142;-21.912;2022-12-05T06:14:39;8.33;;;3.30;;
47225;SDS011;32965;64.142;-21.912;2022-12-05T06:17:04;7.93;;;2.60;;
47225;SDS011;32965;64.142;-21.912;2022-12-05T06:19:30;8.03;;;3.23;;
47225;SDS011;32965;64.142;-21.912;2022-12-05T06:21:56;7.53;;;2.77;;
47225;SDS011;32965;64.142;-21.912;2022-12-05T06:24:21;7.83;;;2.93;;
47225;SDS011;32965;64.142;-21.912;2022-12-05T06:26:47;10.80;;;3.80;;
47225;SDS011;32965;64.142;-21.912;2022-12-05T06:29:13;6.10;;;2.47;;
47225;SDS011;32965;64.142;-21.912;2022-12-05T06:31:39;9.47;;;3.97;;
47225;SDS011;32965;64.142;-21.912;2022-12-05T06:34:06;9.83;;;3.33;;
47225;SDS011;32965;64.142;-21.912;2022-12-05T06:36:32;9.97;;;3.03;;
47225;SDS011;32965;64.142;-21.912;2022-12-05T06:38:58;7.67;;;3.07;;
47225;SDS011;32965;64.142;-21.912;2022-12-05T06:41:24;8.27;;;2.87;;
47225;SDS011;32965;64.142;-21.912;2022-12-05T06:43:52;8.63;;;3.37;;
47225;SDS011;32965;64.142;-21.912;2022-12-05T06:46:21;7.90;;;3.30;;
47225;SDS011;32965;64.142;-21.912;2022-12-05T06:48:50;6.47;;;2.97;;
47225;SDS011;32965;64.142;-21.912;2022-12-05T06:51:17;8.05;;;2.95;;
47225;SDS011;32965;64.142;-21.912;2022-12-05T06:53:43;6.97;;;2.40;;
47225;SDS011;32965;64.142;-21.912;2022-12-05T06:56:10;8.57;;;3.87;;
47225;SDS011;32965;64.142;-21.912;2022-12-05T06:58:38;9.35;;;2.92;;
47225;SDS011;32965;64.142;-21.912;2022-12-05T07:01:05;6.67;;;2.80;;
47225;SDS011;32965;64.142;-21.912;2022-12-05T07:03:56;9.67;;;2.90;;
47225;SDS011;32965;64.142;-21.912;2022-12-05T07:06:23;8.73;;;3.40;;
47225;SDS011;32965;64.142;-21.912;2022-12-05T07:08:49;8.27;;;2.83;;
47225;SDS011;32965;64.142;-21.912;2022-12-05T07:11:15;8.17;;;3.33;;
47225;SDS011;32965;64.142;-21.912;2022-12-05T07:13:40;7.23;;;3.23;;
47225;SDS011;32965;64.142;-21.912;2022-12-05T07:16:06;8.10;;;3.07;;
47225;SDS011;32965;64.142;-21.912;2022-12-05T07:18:32;7.47;;;2.60;;
47225;SDS011;32965;64.142;-21.912;2022-12-05T07:21:00;8.57;;;3.37;;
47225;SDS011;32965;64.142;-21.912;2022-12-05T07:23:30;8.07;;;2.70;;
47225;SDS011;32965;64.142;-21.912;2022-12-05T07:26:02;8.75;;;3.80;;
47225;SDS011;32965;64.142;-21.912;2022-12-05T07:28:30;7.87;;;3.43;;
47225;SDS011;32965;64.142;-21.912;2022-12-05T07:33:46;9.83;;;3.47;;
47225;SDS011;32965;64.142;-21.912;2022-12-05T07:36:14;9.20;;;3.23;;
47225;SDS011;32965;64.142;-21.912;2022-12-05T07:38:42;10.38;;;3.80;;
47225;SDS011;32965;64.142;-21.912;2022-12-05T07:41:09;10.33;;;4.20;;
47225;SDS011;32965;64.142;-21.912;2022-12-05T07:43:40;10.80;;;3.97;;
47225;SDS011;32965;64.142;-21.912;2022-12-05T07:46:06;11.87;;;4.57;;
47225;SDS011;32965;64.142;-21.912;2022-12-05T07:51:01;10.63;;;3.93;;
47225;SDS011;32965;64.142;-21.912;2022-12-05T07:53:28;10.73;;;3.93;;
47225;SDS011;32965;64.142;-21.912;2022-12-05T07:55:57;12.70;;;4.27;;
47225;SDS011;32965;64.142;-21.912;2022-12-05T07:58:24;10.43;;;3.90;;
47225;SDS011;32965;64.142;-21.912;2022-12-05T08:00:50;9.10;;;3.80;;
47225;SDS011;32965;64.142;-21.912;2022-12-05T08:03:15;12.13;;;4.07;;
47225;SDS011;32965;64.142;-21.912;2022-12-05T08:05:42;11.60;;;3.77;;
47225;SDS011;32965;64.142;-21.912;2022-12-05T08:08:07;10.67;;;3.20;;
47225;SDS011;32965;64.142;-21.912;2022-12-05T08:10:33;10.23;;;4.07;;
47225;SDS011;32965;64.142;-21.912;2022-12-05T08:12:59;8.57;;;3.47;;
47225;SDS011;32965;64.142;-21.912;2022-12-05T08:15:25;9.17;;;3.80;;
47225;SDS011;32965;64.142;-21.912;2022-12-05T08:17:51;9.57;;;3.93;;
47225;SDS011;32965;64.142;-21.912;2022-12-05T08:20:17;12.10;;;3.83;;
47225;SDS011;32965;64.142;-21.912;2022-12-05T08:22:42;7.90;;;3.40;;
47225;SDS011;32965;64.142;-21.912;2022-12-05T08:25:08;8.90;;;3.43;;
47225;SDS011;32965;64.142;-21.912;2022-12-05T08:27:34;9.57;;;3.70;;
47225;SDS011;32965;64.142;-21.912;2022-12-05T08:30:00;8.20;;;3.83;;
47225;SDS011;32965;64.142;-21.912;2022-12-05T08:32:26;10.07;;;3.73;;
47225;SDS011;32965;64.142;-21.912;2022-12-05T08:34:52;8.57;;;3.27;;
47225;SDS011;32965;64.142;-21.912;2022-12-05T08:37:18;10.63;;;3.50;;
47225;SDS011;32965;64.142;-21.912;2022-12-05T08:39:43;13.03;;;3.07;;
47225;SDS011;32965;64.142;-21.912;2022-12-05T08:42:09;7.90;;;3.47;;
47225;SDS011;32965;64.142;-21.912;2022-12-05T08:44:35;9.63;;;3.33;;
47225;SDS011;32965;64.142;-21.912;2022-12-05T08:47:00;8.17;;;3.57;;
47225;SDS011;32965;64.142;-21.912;2022-12-05T08:49:26;9.07;;;3.07;;
47225;SDS011;32965;64.142;-21.912;2022-12-05T08:51:52;8.53;;;2.97;;
47225;SDS011;32965;64.142;-21.912;2022-12-05T08:54:18;7.97;;;2.90;;
47225;SDS011;32965;64.142;-21.912;2022-12-05T08:56:43;4.37;;;2.43;;
47225;SDS011;32965;64.142;-21.912;2022-12-05T08:59:09;7.17;;;2.30;;
47225;SDS011;32965;64.142;-21.912;2022-12-05T09:01:35;5.47;;;2.80;;
47225;SDS011;32965;64.142;-21.912;2022-12-05T09:04:03;8.87;;;2.60;;
47225;SDS011;32965;64.142;-21.912;2022-12-05T09:06:29;5.50;;;2.40;;
47225;SDS011;32965;64.142;-21.912;2022-12-05T09:08:59;5.67;;;1.90;;
47225;SDS011;32965;64.142;-21.912;2022-12-05T09:11:29;5.33;;;2.10;;
47225;SDS011;32965;64.142;-21.912;2022-12-05T09:16:31;5.50;;;1.90;;
47225;SDS011;32965;64.142;-21.912;2022-12-05T09:18:58;5.10;;;2.43;;
47225;SDS011;32965;64.142;-21.912;2022-12-05T09:21:25;7.10;;;2.13;;
47225;SDS011;32965;64.142;-21.912;2022-12-05T09:26:20;7.40;;;1.93;;
47225;SDS011;32965;64.142;-21.912;2022-12-05T09:28:50;6.30;;;2.10;;
47225;SDS011;32965;64.142;-21.912;2022-12-05T09:31:17;8.60;;;2.47;;
47225;SDS011;32965;64.142;-21.912;2022-12-05T09:33:45;6.72;;;2.35;;
47225;SDS011;32965;64.142;-21.912;2022-12-05T09:38:39;5.60;;;2.40;;
47225;SDS011;32965;64.142;-21.912;2022-12-05T09:41:09;4.57;;;1.83;;
47225;SDS011;32965;64.142;-21.912;2022-12-05T09:44:20;8.35;;;2.30;;
47225;SDS011;32965;64.142;-21.912;2022-12-05T09:50:13;5.07;;;2.17;;
47225;SDS011;32965;64.142;-21.912;2022-12-05T09:52:41;5.50;;;2.13;;
47225;SDS011;32965;64.142;-21.912;2022-12-05T09:55:13;6.00;;;2.23;;
47225;SDS011;32965;64.142;-21.912;2022-12-05T09:58:05;4.57;;;2.13;;
47225;SDS011;32965;64.142;-21.912;2022-12-05T10:00:30;7.27;;;2.30;;
47225;SDS011;32965;64.142;-21.912;2022-12-05T10:05:56;11.53;;;3.63;;
47225;SDS011;32965;64.142;-21.912;2022-12-05T10:08:37;11.93;;;4.07;;
47225;SDS011;32965;64.142;-21.912;2022-12-05T10:14:12;9.47;;;3.23;;
47225;SDS011;32965;64.142;-21.912;2022-12-05T10:16:49;13.90;;;3.83;;
47225;SDS011;32965;64.142;-21.912;2022-12-05T10:19:23;14.53;;;4.53;;
47225;SDS011;32965;64.142;-21.912;2022-12-05T10:22:03;12.90;;;3.20;;
47225;SDS011;32965;64.142;-21.912;2022-12-05T10:24:58;12.57;;;4.00;;
47225;SDS011;32965;64.142;-21.912;2022-12-05T10:27:30;18.00;;;4.13;;
47225;SDS011;32965;64.142;-21.912;2022-12-05T10:30:16;18.67;;;4.40;;
47225;SDS011;32965;64.142;-21.912;2022-12-05T10:35:27;24.37;;;5.03;;
47225;SDS011;32965;64.142;-21.912;2022-12-05T10:38:04;24.60;;;4.50;;
47225;SDS011;32965;64.142;-21.912;2022-12-05T10:40:36;32.90;;;6.93;;
47225;SDS011;32965;64.142;-21.912;2022-12-05T10:43:04;26.58;;;6.20;;
47225;SDS011;32965;64.142;-21.912;2022-12-05T10:45:32;38.28;;;5.25;;
47225;SDS011;32965;64.142;-21.912;2022-12-05T10:50:28;19.23;;;4.60;;
47225;SDS011;32965;64.142;-21.912;2022-12-05T10:52:56;19.27;;;5.13;;
47225;SDS011;32965;64.142;-21.912;2022-12-05T10:55:35;22.73;;;4.90;;
47225;SDS011;32965;64.142;-21.912;2022-12-05T10:58:11;20.17;;;4.70;;
47225;SDS011;32965;64.142;-21.912;2022-12-05T11:00:42;24.83;;;4.80;;
47225;SDS011;32965;64.142;-21.912;2022-12-05T11:05:54;15.57;;;4.80;;
47225;SDS011;32965;64.142;-21.912;2022-12-05T11:08:25;16.77;;;3.50;;
47225;SDS011;32965;64.142;-21.912;2022-12-05T11:11:03;17.40;;;4.10;;
47225;SDS011;32965;64.142;-21.912;2022-12-05T11:13:30;18.97;;;3.73;;
47225;SDS011;32965;64.142;-21.912;2022-12-05T11:15:56;17.80;;;3.43;;
47225;SDS011;32965;64.142;-21.912;2022-12-05T11:18:32;12.53;;;3.63;;
47225;SDS011;32965;64.142;-21.912;2022-12-05T11:21:16;10.90;;;3.10;;
47225;SDS011;32965;64.142;-21.912;2022-12-05T11:23:44;7.33;;;2.93;;
47225;SDS011;32965;64.142;-21.912;2022-12-05T11:26:19;9.07;;;2.37;;
47225;SDS011;32965;64.142;-21.912;2022-12-05T11:29:04;5.87;;;2.57;;
47225;SDS011;32965;64.142;-21.912;2022-12-05T11:31:57;8.17;;;2.07;;
47225;SDS011;32965;64.142;-21.912;2022-12-05T11:34:28;7.73;;;2.60;;
47225;SDS011;32965;64.142;-21.912;2022-12-05T11:37:08;7.90;;;2.53;;
47225;SDS011;32965;64.142;-21.912;2022-12-05T11:39:42;8.13;;;2.40;;
47225;SDS011;32965;64.142;-21.912;2022-12-05T11:50:36;6.00;;;2.30;;
47225;SDS011;32965;64.142;-21.912;2022-12-05T11:55:53;9.33;;;2.77;;
47225;SDS011;32965;64.142;-21.912;2022-12-05T12:06:37;9.20;;;2.50;;
47225;SDS011;32965;64.142;-21.912;2022-12-05T12:25:38;5.37;;;2.13;;
47225;SDS011;32965;64.142;-21.912;2022-12-05T12:30:58;7.60;;;2.20;;
47225;SDS011;32965;64.142;-21.912;2022-12-05T12:38:59;7.93;;;2.43;;
47225;SDS011;32965;64.142;-21.912;2022-12-05T12:46:54;8.27;;;2.80;;
47225;SDS011;32965;64.142;-21.912;2022-12-05T12:52:16;10.17;;;3.40;;
47225;SDS011;32965;64.142;-21.912;2022-12-05T13:03:02;6.30;;;2.80;;
47225;SDS011;32965;64.142;-21.912;2022-12-05T13:05:37;9.57;;;3.47;;
47225;SDS011;32965;64.142;-21.912;2022-12-05T13:10:50;11.17;;;3.80;;
47225;SDS011;32965;64.142;-21.912;2022-12-05T13:13:21;9.13;;;3.70;;
47225;SDS011;32965;64.142;-21.912;2022-12-05T13:15:58;10.60;;;3.80;;
47225;SDS011;32965;64.142;-21.912;2022-12-05T13:18:25;10.00;;;3.17;;
47225;SDS011;32965;64.142;-21.912;2022-12-05T13:20:52;11.03;;;3.17;;
47225;SDS011;32965;64.142;-21.912;2022-12-05T13:23:30;6.07;;;3.22;;
47225;SDS011;32965;64.142;-21.912;2022-12-05T13:25:59;8.53;;;3.63;;
47225;SDS011;32965;64.142;-21.912;2022-12-05T13:29:13;12.13;;;4.20;;
47225;SDS011;32965;64.142;-21.912;2022-12-05T13:31:16;10.27;;;4.10;;
47225;SDS011;32965;64.142;-21.912;2022-12-05T13:33:44;9.57;;;3.77;;
47225;SDS011;32965;64.142;-21.912;2022-12-05T13:36:13;10.15;;;3.63;;
47225;SDS011;32965;64.142;-21.912;2022-12-05T13:39:06;8.80;;;3.67;;
47225;SDS011;32965;64.142;-21.912;2022-12-05T13:42:03;12.37;;;3.67;;
47225;SDS011;32965;64.142;-21.912;2022-12-05T13:47:20;9.03;;;3.37;;
47225;SDS011;32965;64.142;-21.912;2022-12-05T13:50:02;8.87;;;3.60;;
47225;SDS011;32965;64.142;-21.912;2022-12-05T13:52:48;10.50;;;3.77;;
47225;SDS011;32965;64.142;-21.912;2022-12-05T13:57:53;8.57;;;3.90;;
47225;SDS011;32965;64.142;-21.912;2022-12-05T14:00:27;10.20;;;3.90;;
47225;SDS011;32965;64.142;-21.912;2022-12-05T14:02:55;9.03;;;4.17;;
47225;SDS011;32965;64.142;-21.912;2022-12-05T14:15:51;9.70;;;3.77;;
47225;SDS011;32965;64.142;-21.912;2022-12-05T14:21:04;12.60;;;4.33;;
47225;SDS011;32965;64.142;-21.912;2022-12-05T14:34:35;15.53;;;4.17;;
47225;SDS011;32965;64.142;-21.912;2022-12-05T14:37:03;12.03;;;4.53;;
47225;SDS011;32965;64.142;-21.912;2022-12-05T14:39:45;12.43;;;4.47;;
47225;SDS011;32965;64.142;-21.912;2022-12-05T14:42:21;11.30;;;4.00;;
47225;SDS011;32965;64.142;-21.912;2022-12-05T14:44:52;12.70;;;3.83;;
47225;SDS011;32965;64.142;-21.912;2022-12-05T14:47:25;8.63;;;4.07;;
47225;SDS011;32965;64.142;-21.912;2022-12-05T14:49:55;13.37;;;3.90;;
47225;SDS011;32965;64.142;-21.912;2022-12-05T14:52:26;10.50;;;4.07;;
47225;SDS011;32965;64.142;-21.912;2022-12-05T14:55:04;10.77;;;3.50;;
47225;SDS011;32965;64.142;-21.912;2022-12-05T14:57:40;10.60;;;4.27;;
47225;SDS011;32965;64.142;-21.912;2022-12-05T15:00:21;13.03;;;3.53;;
47225;SDS011;32965;64.142;-21.912;2022-12-05T15:02:47;9.00;;;4.30;;
47225;SDS011;32965;64.142;-21.912;2022-12-05T15:05:26;12.85;;;4.35;;
47225;SDS011;32965;64.142;-21.912;2022-12-05T15:07:55;12.73;;;4.03;;
47225;SDS011;32965;64.142;-21.912;2022-12-05T15:10:27;10.32;;;3.85;;
47225;SDS011;32965;64.142;-21.912;2022-12-05T15:15:42;9.57;;;4.40;;
47225;SDS011;32965;64.142;-21.912;2022-12-05T15:21:09;11.63;;;4.50;;
47225;SDS011;32965;64.142;-21.912;2022-12-05T15:29:25;11.40;;;4.70;;
47225;SDS011;32965;64.142;-21.912;2022-12-05T15:31:45;8.73;;;3.73;;
47225;SDS011;32965;64.142;-21.912;2022-12-05T15:36:56;11.23;;;3.43;;
47225;SDS011;32965;64.142;-21.912;2022-12-05T15:39:49;8.93;;;3.67;;
47225;SDS011;32965;64.142;-21.912;2022-12-05T15:42:28;9.27;;;3.93;;
47225;SDS011;32965;64.142;-21.912;2022-12-05T15:47:43;10.20;;;3.73;;
47225;SDS011;32965;64.142;-21.912;2022-12-05T15:50:13;8.20;;;3.67;;
47225;SDS011;32965;64.142;-21.912;2022-12-05T15:52:42;9.27;;;3.80;;
47225;SDS011;32965;64.142;-21.912;2022-12-05T15:55:17;9.57;;;3.53;;
47225;SDS011;32965;64.142;-21.912;2022-12-05T16:00:54;8.30;;;3.53;;
47225;SDS011;32965;64.142;-21.912;2022-12-05T16:06:16;9.43;;;3.23;;
47225;SDS011;32965;64.142;-21.912;2022-12-05T16:08:46;7.93;;;2.90;;
47225;SDS011;32965;64.142;-21.912;2022-12-05T16:11:13;7.20;;;3.43;;
47225;SDS011;32965;64.142;-21.912;2022-12-05T16:13:42;9.10;;;3.83;;
47225;SDS011;32965;64.142;-21.912;2022-12-05T16:16:20;6.53;;;2.67;;
47225;SDS011;32965;64.142;-21.912;2022-12-05T16:18:48;7.17;;;2.63;;
47225;SDS011;32965;64.142;-21.912;2022-12-05T16:21:37;9.10;;;2.40;;
47225;SDS011;32965;64.142;-21.912;2022-12-05T16:24:07;10.97;;;2.40;;
47225;SDS011;32965;64.142;-21.912;2022-12-05T16:26:39;4.97;;;2.53;;
47225;SDS011;32965;64.142;-21.912;2022-12-05T16:29:06;7.37;;;2.00;;
47225;SDS011;32965;64.142;-21.912;2022-12-05T16:31:57;6.80;;;2.20;;
47225;SDS011;32965;64.142;-21.912;2022-12-05T16:34:28;7.90;;;2.37;;
47225;SDS011;32965;64.142;-21.912;2022-12-05T16:36:56;9.40;;;2.30;;
47225;SDS011;32965;64.142;-21.912;2022-12-05T16:39:23;7.10;;;2.20;;
47225;SDS011;32965;64.142;-21.912;2022-12-05T16:41:52;5.37;;;1.67;;
47225;SDS011;32965;64.142;-21.912;2022-12-05T16:50:43;4.77;;;1.80;;
47225;SDS011;32965;64.142;-21.912;2022-12-05T16:55:36;3.73;;;1.67;;
47225;SDS011;32965;64.142;-21.912;2022-12-05T16:58:03;4.33;;;1.63;;
47225;SDS011;32965;64.142;-21.912;2022-12-05T17:00:29;4.13;;;1.20;;
47225;SDS011;32965;64.142;-21.912;2022-12-05T17:02:56;3.73;;;1.47;;
47225;SDS011;32965;64.142;-21.912;2022-12-05T17:05:22;2.83;;;1.47;;
47225;SDS011;32965;64.142;-21.912;2022-12-05T17:07:48;6.40;;;1.33;;
47225;SDS011;32965;64.142;-21.912;2022-12-05T17:10:15;4.30;;;1.47;;
47225;SDS011;32965;64.142;-21.912;2022-12-05T17:12:41;4.07;;;1.70;;
47225;SDS011;32965;64.142;-21.912;2022-12-05T17:15:16;5.47;;;1.40;;
47225;SDS011;32965;64.142;-21.912;2022-12-05T17:17:44;3.30;;;1.70;;
47225;SDS011;32965;64.142;-21.912;2022-12-05T17:20:10;3.80;;;1.73;;
47225;SDS011;32965;64.142;-21.912;2022-12-05T17:22:39;4.20;;;1.70;;
47225;SDS011;32965;64.142;-21.912;2022-12-05T17:28:00;3.27;;;1.73;;
47225;SDS011;32965;64.142;-21.912;2022-12-05T17:30:26;10.90;;;2.27;;
47225;SDS011;32965;64.142;-21.912;2022-12-05T17:32:52;3.90;;;1.83;;
47225;SDS011;32965;64.142;-21.912;2022-12-05T17:35:18;2.33;;;1.40;;
47225;SDS011;32965;64.142;-21.912;2022-12-05T17:37:46;4.30;;;1.75;;
47225;SDS011;32965;64.142;-21.912;2022-12-05T17:40:12;5.47;;;1.50;;
47225;SDS011;32965;64.142;-21.912;2022-12-05T17:42:39;3.30;;;1.60;;
47225;SDS011;32965;64.142;-21.912;2022-12-05T17:45:05;2.97;;;1.47;;
47225;SDS011;32965;64.142;-21.912;2022-12-05T17:47:35;4.37;;;2.10;;
47225;SDS011;32965;64.142;-21.912;2022-12-05T17:50:01;5.27;;;1.93;;
47225;SDS011;32965;64.142;-21.912;2022-12-05T17:52:27;5.77;;;1.63;;
47225;SDS011;32965;64.142;-21.912;2022-12-05T17:54:53;5.77;;;1.67;;
47225;SDS011;32965;64.142;-21.912;2022-12-05T17:57:19;5.63;;;1.90;;
47225;SDS011;32965;64.142;-21.912;2022-12-05T17:59:45;4.77;;;1.70;;
47225;SDS011;32965;64.142;-21.912;2022-12-05T18:02:10;5.13;;;1.50;;
47225;SDS011;32965;64.142;-21.912;2022-12-05T18:04:36;5.03;;;1.87;;
47225;SDS011;32965;64.142;-21.912;2022-12-05T18:07:02;5.37;;;1.50;;
47225;SDS011;32965;64.142;-21.912;2022-12-05T18:09:28;3.07;;;1.40;;
47225;SDS011;32965;64.142;-21.912;2022-12-05T18:11:55;5.07;;;1.50;;
47225;SDS011;32965;64.142;-21.912;2022-12-05T18:14:21;3.03;;;1.57;;